sensor_id;sensor_type;location;lat;lon;timestamp;temperature;humidity
16881;DHT22;8557;52.068;5.198;2022-11-11T00:00:58;10.30;99.90
16881;DHT22;8557;52.068;5.198;2022-11-11T00:03:25;10.30;99.90
16881;DHT22;8557;52.068;5.198;2022-11-11T00:05:52;10.30;99.90
16881;DHT22;8557;52.068;5.198;2022-11-11T00:08:19;10.30;99.90
16881;DHT22;8557;52.068;5.198;2022-11-11T00:10:45;10.20;99.90
16881;DHT22;8557;52.068;5.198;2022-11-11T00:13:14;10.30;99.90
16881;DHT22;8557;52.068;5.198;2022-11-11T00:15:40;10.40;99.90
16881;DHT22;8557;52.068;5.198;2022-11-11T00:18:09;10.50;99.90
16881;DHT22;8557;52.068;5.198;2022-11-11T00:20:54;10.50;99.90
16881;DHT22;8557;52.068;5.198;2022-11-11T00:23:40;10.60;99.90
16881;DHT22;8557;52.068;5.198;2022-11-11T00:26:26;10.60;99.90
16881;DHT22;8557;52.068;5.198;2022-11-11T00:28:54;10.60;99.90
16881;DHT22;8557;52.068;5.198;2022-11-11T00:31:21;10.70;99.90
16881;DHT22;8557;52.068;5.198;2022-11-11T00:33:48;10.60;99.90
16881;DHT22;8557;52.068;5.198;2022-11-11T00:36:14;10.70;99.90
16881;DHT22;8557;52.068;5.198;2022-11-11T00:38:41;10.60;99.90
16881;DHT22;8557;52.068;5.198;2022-11-11T00:41:16;10.60;99.90
16881;DHT22;8557;52.068;5.198;2022-11-11T00:43:43;10.60;99.90
16881;DHT22;8557;52.068;5.198;2022-11-11T00:46:13;10.60;99.90
16881;DHT22;8557;52.068;5.198;2022-11-11T00:48:58;10.60;99.90
16881;DHT22;8557;52.068;5.198;2022-11-11T00:51:43;10.60;99.90
16881;DHT22;8557;52.068;5.198;2022-11-11T00:54:10;10.70;99.90
16881;DHT22;8557;52.068;5.198;2022-11-11T00:56:37;10.60;99.90
16881;DHT22;8557;52.068;5.198;2022-11-11T00:59:04;10.60;99.90
16881;DHT22;8557;52.068;5.198;2022-11-11T01:01:33;10.70;99.90
16881;DHT22;8557;52.068;5.198;2022-11-11T01:04:00;10.70;99.90
16881;DHT22;8557;52.068;5.198;2022-11-11T01:06:27;10.80;99.90
16881;DHT22;8557;52.068;5.198;2022-11-11T01:08:54;10.80;99.90
16881;DHT22;8557;52.068;5.198;2022-11-11T01:11:22;10.90;99.90
16881;DHT22;8557;52.068;5.198;2022-11-11T01:13:50;10.90;99.90
16881;DHT22;8557;52.068;5.198;2022-11-11T01:16:19;11.00;99.90
16881;DHT22;8557;52.068;5.198;2022-11-11T01:18:48;10.90;99.90
16881;DHT22;8557;52.068;5.198;2022-11-11T01:21:18;10.80;99.90
16881;DHT22;8557;52.068;5.198;2022-11-11T01:23:46;10.80;99.90
16881;DHT22;8557;52.068;5.198;2022-11-11T01:26:16;10.80;99.90
16881;DHT22;8557;52.068;5.198;2022-11-11T01:28:44;10.70;99.90
16881;DHT22;8557;52.068;5.198;2022-11-11T01:31:12;10.70;99.90
16881;DHT22;8557;52.068;5.198;2022-11-11T01:33:40;10.70;99.90
16881;DHT22;8557;52.068;5.198;2022-11-11T01:36:11;10.70;99.90
16881;DHT22;8557;52.068;5.198;2022-11-11T01:38:38;10.80;99.90
16881;DHT22;8557;52.068;5.198;2022-11-11T01:41:09;10.80;99.90
16881;DHT22;8557;52.068;5.198;2022-11-11T01:43:53;10.80;99.90
16881;DHT22;8557;52.068;5.198;2022-11-11T01:46:27;10.90;99.90
16881;DHT22;8557;52.068;5.198;2022-11-11T01:48:57;10.80;99.90
16881;DHT22;8557;52.068;5.198;2022-11-11T01:51:46;10.90;99.90
16881;DHT22;8557;52.068;5.198;2022-11-11T01:54:15;10.80;99.90
16881;DHT22;8557;52.068;5.198;2022-11-11T01:56:46;10.80;99.90
16881;DHT22;8557;52.068;5.198;2022-11-11T01:59:15;10.80;99.90
16881;DHT22;8557;52.068;5.198;2022-11-11T02:01:43;10.80;99.90
16881;DHT22;8557;52.068;5.198;2022-11-11T02:04:11;10.70;99.90
16881;DHT22;8557;52.068;5.198;2022-11-11T02:07:00;10.60;99.90
16881;DHT22;8557;52.068;5.198;2022-11-11T02:09:28;10.60;99.90
16881;DHT22;8557;52.068;5.198;2022-11-11T02:11:57;10.60;99.90
16881;DHT22;8557;52.068;5.198;2022-11-11T02:14:46;10.60;99.90
16881;DHT22;8557;52.068;5.198;2022-11-11T02:17:14;10.60;99.90
16881;DHT22;8557;52.068;5.198;2022-11-11T02:19:45;10.70;99.90
16881;DHT22;8557;52.068;5.198;2022-11-11T02:22:21;10.70;99.90
16881;DHT22;8557;52.068;5.198;2022-11-11T02:24:51;10.60;99.90
16881;DHT22;8557;52.068;5.198;2022-11-11T02:27:19;10.70;99.90
16881;DHT22;8557;52.068;5.198;2022-11-11T02:29:49;10.70;99.90
16881;DHT22;8557;52.068;5.198;2022-11-11T02:32:17;10.60;99.90
16881;DHT22;8557;52.068;5.198;2022-11-11T02:34:44;10.50;99.90
16881;DHT22;8557;52.068;5.198;2022-11-11T02:37:11;10.50;99.90
16881;DHT22;8557;52.068;5.198;2022-11-11T02:39:43;10.40;99.90
16881;DHT22;8557;52.068;5.198;2022-11-11T02:42:14;10.40;99.90
16881;DHT22;8557;52.068;5.198;2022-11-11T02:44:41;10.30;99.90
16881;DHT22;8557;52.068;5.198;2022-11-11T02:47:08;10.20;99.90
16881;DHT22;8557;52.068;5.198;2022-11-11T02:49:35;10.20;99.90
16881;DHT22;8557;52.068;5.198;2022-11-11T02:52:02;10.20;99.90
16881;DHT22;8557;52.068;5.198;2022-11-11T02:54:29;10.20;99.90
16881;DHT22;8557;52.068;5.198;2022-11-11T02:56:56;10.20;99.90
16881;DHT22;8557;52.068;5.198;2022-11-11T02:59:37;10.20;99.90
16881;DHT22;8557;52.068;5.198;2022-11-11T03:02:05;10.30;99.90
16881;DHT22;8557;52.068;5.198;2022-11-11T03:04:32;10.30;99.90
16881;DHT22;8557;52.068;5.198;2022-11-11T03:06:59;10.30;99.90
16881;DHT22;8557;52.068;5.198;2022-11-11T03:09:26;10.30;99.90
16881;DHT22;8557;52.068;5.198;2022-11-11T03:11:53;10.30;99.90
16881;DHT22;8557;52.068;5.198;2022-11-11T03:14:19;10.30;99.90
16881;DHT22;8557;52.068;5.198;2022-11-11T03:16:48;10.40;99.90
16881;DHT22;8557;52.068;5.198;2022-11-11T03:19:32;10.30;99.90
16881;DHT22;8557;52.068;5.198;2022-11-11T03:21:59;10.30;99.90
16881;DHT22;8557;52.068;5.198;2022-11-11T03:24:25;10.30;99.90
16881;DHT22;8557;52.068;5.198;2022-11-11T03:27:13;10.20;99.90
16881;DHT22;8557;52.068;5.198;2022-11-11T03:29:40;10.20;99.90
16881;DHT22;8557;52.068;5.198;2022-11-11T03:32:08;10.30;99.90
16881;DHT22;8557;52.068;5.198;2022-11-11T03:34:35;10.20;99.90
16881;DHT22;8557;52.068;5.198;2022-11-11T03:37:03;10.30;99.90
16881;DHT22;8557;52.068;5.198;2022-11-11T03:39:47;10.30;99.90
16881;DHT22;8557;52.068;5.198;2022-11-11T03:42:14;10.40;99.90
16881;DHT22;8557;52.068;5.198;2022-11-11T03:44:41;10.30;99.90
16881;DHT22;8557;52.068;5.198;2022-11-11T03:47:09;10.40;99.90
16881;DHT22;8557;52.068;5.198;2022-11-11T03:49:36;10.50;99.90
16881;DHT22;8557;52.068;5.198;2022-11-11T03:52:03;10.40;99.90
16881;DHT22;8557;52.068;5.198;2022-11-11T03:54:29;10.40;99.90
16881;DHT22;8557;52.068;5.198;2022-11-11T03:56:56;10.50;99.90
16881;DHT22;8557;52.068;5.198;2022-11-11T03:59:43;10.40;99.90
16881;DHT22;8557;52.068;5.198;2022-11-11T04:02:12;10.40;99.90
16881;DHT22;8557;52.068;5.198;2022-11-11T04:04:57;10.40;99.90
16881;DHT22;8557;52.068;5.198;2022-11-11T04:07:41;10.40;99.90
16881;DHT22;8557;52.068;5.198;2022-11-11T04:10:27;10.30;99.90
16881;DHT22;8557;52.068;5.198;2022-11-11T04:12:55;10.30;99.90
16881;DHT22;8557;52.068;5.198;2022-11-11T04:15:40;10.30;99.90
16881;DHT22;8557;52.068;5.198;2022-11-11T04:18:26;10.30;99.90
16881;DHT22;8557;52.068;5.198;2022-11-11T04:21:07;10.30;99.90
16881;DHT22;8557;52.068;5.198;2022-11-11T04:23:51;10.20;99.90
16881;DHT22;8557;52.068;5.198;2022-11-11T04:26:18;10.30;99.90
16881;DHT22;8557;52.068;5.198;2022-11-11T04:28:44;10.40;99.90
16881;DHT22;8557;52.068;5.198;2022-11-11T04:31:29;10.40;99.90
16881;DHT22;8557;52.068;5.198;2022-11-11T04:33:57;10.30;99.90
16881;DHT22;8557;52.068;5.198;2022-11-11T04:36:22;10.30;99.90
16881;DHT22;8557;52.068;5.198;2022-11-11T04:38:49;10.30;99.90
16881;DHT22;8557;52.068;5.198;2022-11-11T04:41:33;10.20;99.90
16881;DHT22;8557;52.068;5.198;2022-11-11T04:44:00;10.20;99.90
16881;DHT22;8557;52.068;5.198;2022-11-11T04:46:45;10.20;99.90
16881;DHT22;8557;52.068;5.198;2022-11-11T04:49:13;10.10;99.90
16881;DHT22;8557;52.068;5.198;2022-11-11T04:51:39;10.10;99.90
16881;DHT22;8557;52.068;5.198;2022-11-11T04:54:24;10.20;99.90
16881;DHT22;8557;52.068;5.198;2022-11-11T04:56:51;10.10;99.90
16881;DHT22;8557;52.068;5.198;2022-11-11T04:59:18;10.00;99.90
16881;DHT22;8557;52.068;5.198;2022-11-11T05:01:45;10.00;99.90
16881;DHT22;8557;52.068;5.198;2022-11-11T05:04:30;10.00;99.90
16881;DHT22;8557;52.068;5.198;2022-11-11T05:06:57;9.90;99.90
16881;DHT22;8557;52.068;5.198;2022-11-11T05:09:41;9.90;99.90
16881;DHT22;8557;52.068;5.198;2022-11-11T05:12:08;9.90;99.90
16881;DHT22;8557;52.068;5.198;2022-11-11T05:14:35;9.80;99.90
16881;DHT22;8557;52.068;5.198;2022-11-11T05:17:19;9.80;99.90
16881;DHT22;8557;52.068;5.198;2022-11-11T05:20:07;9.70;99.90
16881;DHT22;8557;52.068;5.198;2022-11-11T05:22:51;9.70;99.90
16881;DHT22;8557;52.068;5.198;2022-11-11T05:25:18;9.60;99.90
16881;DHT22;8557;52.068;5.198;2022-11-11T05:27:50;9.60;99.90
16881;DHT22;8557;52.068;5.198;2022-11-11T05:30:17;9.50;99.90
16881;DHT22;8557;52.068;5.198;2022-11-11T05:32:44;9.50;99.90
16881;DHT22;8557;52.068;5.198;2022-11-11T05:35:13;9.50;99.90
16881;DHT22;8557;52.068;5.198;2022-11-11T05:37:40;9.40;99.90
16881;DHT22;8557;52.068;5.198;2022-11-11T05:40:09;9.50;99.90
16881;DHT22;8557;52.068;5.198;2022-11-11T05:42:40;9.50;99.90
16881;DHT22;8557;52.068;5.198;2022-11-11T05:45:07;9.40;99.90
16881;DHT22;8557;52.068;5.198;2022-11-11T05:47:34;9.40;99.90
16881;DHT22;8557;52.068;5.198;2022-11-11T05:50:01;9.50;99.90
16881;DHT22;8557;52.068;5.198;2022-11-11T05:52:29;9.30;99.90
16881;DHT22;8557;52.068;5.198;2022-11-11T05:54:56;9.40;99.90
16881;DHT22;8557;52.068;5.198;2022-11-11T05:57:23;9.40;99.90
16881;DHT22;8557;52.068;5.198;2022-11-11T05:59:50;9.30;99.90
16881;DHT22;8557;52.068;5.198;2022-11-11T06:02:16;9.30;99.90
16881;DHT22;8557;52.068;5.198;2022-11-11T06:04:43;9.40;99.90
16881;DHT22;8557;52.068;5.198;2022-11-11T06:07:10;9.40;99.90
16881;DHT22;8557;52.068;5.198;2022-11-11T06:09:38;9.40;99.90
16881;DHT22;8557;52.068;5.198;2022-11-11T06:12:05;9.40;99.90
16881;DHT22;8557;52.068;5.198;2022-11-11T06:14:32;9.40;99.90
16881;DHT22;8557;52.068;5.198;2022-11-11T06:16:58;9.50;99.90
16881;DHT22;8557;52.068;5.198;2022-11-11T06:19:25;9.50;99.90
16881;DHT22;8557;52.068;5.198;2022-11-11T06:21:52;9.60;99.90
16881;DHT22;8557;52.068;5.198;2022-11-11T06:24:26;9.70;99.90
16881;DHT22;8557;52.068;5.198;2022-11-11T06:26:54;9.80;99.90
16881;DHT22;8557;52.068;5.198;2022-11-11T06:29:20;9.80;99.90
16881;DHT22;8557;52.068;5.198;2022-11-11T06:31:47;9.80;99.90
16881;DHT22;8557;52.068;5.198;2022-11-11T06:34:14;9.90;99.90
16881;DHT22;8557;52.068;5.198;2022-11-11T06:36:41;9.80;99.90
16881;DHT22;8557;52.068;5.198;2022-11-11T06:39:08;9.90;99.90
16881;DHT22;8557;52.068;5.198;2022-11-11T06:41:34;10.00;99.90
16881;DHT22;8557;52.068;5.198;2022-11-11T06:44:03;10.00;99.90
16881;DHT22;8557;52.068;5.198;2022-11-11T06:46:30;10.10;99.90
16881;DHT22;8557;52.068;5.198;2022-11-11T06:48:57;10.10;99.90
16881;DHT22;8557;52.068;5.198;2022-11-11T06:51:23;10.10;99.90
16881;DHT22;8557;52.068;5.198;2022-11-11T06:53:50;10.10;99.90
16881;DHT22;8557;52.068;5.198;2022-11-11T06:56:17;10.20;99.90
16881;DHT22;8557;52.068;5.198;2022-11-11T06:58:43;10.20;99.90
16881;DHT22;8557;52.068;5.198;2022-11-11T07:01:12;10.20;99.90
16881;DHT22;8557;52.068;5.198;2022-11-11T07:03:39;10.30;99.90
16881;DHT22;8557;52.068;5.198;2022-11-11T07:06:06;10.30;99.90
16881;DHT22;8557;52.068;5.198;2022-11-11T07:08:33;10.30;99.90
16881;DHT22;8557;52.068;5.198;2022-11-11T07:11:00;10.40;99.90
16881;DHT22;8557;52.068;5.198;2022-11-11T07:13:27;10.40;99.90
16881;DHT22;8557;52.068;5.198;2022-11-11T07:15:54;10.40;99.90
16881;DHT22;8557;52.068;5.198;2022-11-11T07:18:22;10.40;99.90
16881;DHT22;8557;52.068;5.198;2022-11-11T07:20:49;10.30;99.90
16881;DHT22;8557;52.068;5.198;2022-11-11T07:23:15;10.30;99.90
16881;DHT22;8557;52.068;5.198;2022-11-11T07:25:42;10.40;99.90
16881;DHT22;8557;52.068;5.198;2022-11-11T07:28:09;10.30;99.90
16881;DHT22;8557;52.068;5.198;2022-11-11T07:30:36;10.40;99.90
16881;DHT22;8557;52.068;5.198;2022-11-11T07:33:03;10.40;99.90
16881;DHT22;8557;52.068;5.198;2022-11-11T07:35:31;10.40;99.90
16881;DHT22;8557;52.068;5.198;2022-11-11T07:37:58;10.40;99.90
16881;DHT22;8557;52.068;5.198;2022-11-11T07:40:25;10.40;99.90
16881;DHT22;8557;52.068;5.198;2022-11-11T07:42:51;10.50;99.90
16881;DHT22;8557;52.068;5.198;2022-11-11T07:45:18;10.50;99.90
16881;DHT22;8557;52.068;5.198;2022-11-11T07:47:45;10.50;99.90
16881;DHT22;8557;52.068;5.198;2022-11-11T07:50:12;10.50;99.90
16881;DHT22;8557;52.068;5.198;2022-11-11T07:52:40;10.40;99.90
16881;DHT22;8557;52.068;5.198;2022-11-11T07:55:07;10.50;99.90
16881;DHT22;8557;52.068;5.198;2022-11-11T07:57:34;10.50;99.90
16881;DHT22;8557;52.068;5.198;2022-11-11T08:00:02;10.50;99.90
16881;DHT22;8557;52.068;5.198;2022-11-11T08:02:29;10.50;99.90
16881;DHT22;8557;52.068;5.198;2022-11-11T08:04:56;10.40;99.90
16881;DHT22;8557;52.068;5.198;2022-11-11T08:07:23;10.50;99.90
16881;DHT22;8557;52.068;5.198;2022-11-11T08:09:51;10.50;99.90
16881;DHT22;8557;52.068;5.198;2022-11-11T08:12:18;10.50;99.90
16881;DHT22;8557;52.068;5.198;2022-11-11T08:15:03;10.50;99.90
16881;DHT22;8557;52.068;5.198;2022-11-11T08:17:30;10.60;99.90
16881;DHT22;8557;52.068;5.198;2022-11-11T08:19:56;10.50;99.90
16881;DHT22;8557;52.068;5.198;2022-11-11T08:22:23;10.50;99.90
16881;DHT22;8557;52.068;5.198;2022-11-11T08:24:51;10.50;99.90
16881;DHT22;8557;52.068;5.198;2022-11-11T08:27:18;10.50;99.90
16881;DHT22;8557;52.068;5.198;2022-11-11T08:29:45;10.50;99.90
16881;DHT22;8557;52.068;5.198;2022-11-11T08:32:11;10.50;99.90
16881;DHT22;8557;52.068;5.198;2022-11-11T08:34:38;10.50;99.90
16881;DHT22;8557;52.068;5.198;2022-11-11T08:37:05;10.50;99.90
16881;DHT22;8557;52.068;5.198;2022-11-11T08:39:31;10.40;99.90
16881;DHT22;8557;52.068;5.198;2022-11-11T08:41:59;10.50;99.90
16881;DHT22;8557;52.068;5.198;2022-11-11T08:44:26;10.50;99.90
16881;DHT22;8557;52.068;5.198;2022-11-11T08:46:54;10.60;99.90
16881;DHT22;8557;52.068;5.198;2022-11-11T08:49:20;10.50;99.90
16881;DHT22;8557;52.068;5.198;2022-11-11T08:51:47;10.60;99.90
16881;DHT22;8557;52.068;5.198;2022-11-11T08:54:14;10.70;99.90
16881;DHT22;8557;52.068;5.198;2022-11-11T08:56:41;10.70;99.90
16881;DHT22;8557;52.068;5.198;2022-11-11T08:59:09;10.70;99.90
16881;DHT22;8557;52.068;5.198;2022-11-11T09:01:36;10.70;99.90
16881;DHT22;8557;52.068;5.198;2022-11-11T09:04:03;10.70;99.90
16881;DHT22;8557;52.068;5.198;2022-11-11T09:06:30;10.80;99.90
16881;DHT22;8557;52.068;5.198;2022-11-11T09:08:57;10.70;99.90
16881;DHT22;8557;52.068;5.198;2022-11-11T09:11:23;10.70;99.90
16881;DHT22;8557;52.068;5.198;2022-11-11T09:13:50;10.70;99.90
16881;DHT22;8557;52.068;5.198;2022-11-11T09:16:18;10.80;99.90
16881;DHT22;8557;52.068;5.198;2022-11-11T09:18:45;10.80;99.90
16881;DHT22;8557;52.068;5.198;2022-11-11T09:21:12;10.80;99.90
16881;DHT22;8557;52.068;5.198;2022-11-11T09:23:39;10.90;99.90
16881;DHT22;8557;52.068;5.198;2022-11-11T09:26:05;10.80;99.90
16881;DHT22;8557;52.068;5.198;2022-11-11T09:28:32;10.80;99.90
16881;DHT22;8557;52.068;5.198;2022-11-11T09:31:00;10.80;99.90
16881;DHT22;8557;52.068;5.198;2022-11-11T09:33:28;10.80;99.90
16881;DHT22;8557;52.068;5.198;2022-11-11T09:36:06;10.80;99.90
16881;DHT22;8557;52.068;5.198;2022-11-11T09:38:33;10.80;99.90
16881;DHT22;8557;52.068;5.198;2022-11-11T09:41:09;10.80;99.90
16881;DHT22;8557;52.068;5.198;2022-11-11T09:43:45;10.90;99.90
16881;DHT22;8557;52.068;5.198;2022-11-11T09:46:24;11.00;99.90
16881;DHT22;8557;52.068;5.198;2022-11-11T09:49:09;11.10;99.90
16881;DHT22;8557;52.068;5.198;2022-11-11T09:51:42;11.10;99.90
16881;DHT22;8557;52.068;5.198;2022-11-11T09:54:16;11.10;99.90
16881;DHT22;8557;52.068;5.198;2022-11-11T09:56:44;11.10;99.90
16881;DHT22;8557;52.068;5.198;2022-11-11T09:59:15;11.20;99.90
16881;DHT22;8557;52.068;5.198;2022-11-11T10:01:47;11.30;99.90
16881;DHT22;8557;52.068;5.198;2022-11-11T10:04:26;11.40;99.90
16881;DHT22;8557;52.068;5.198;2022-11-11T10:07:00;11.40;99.90
16881;DHT22;8557;52.068;5.198;2022-11-11T10:09:33;11.50;99.90
16881;DHT22;8557;52.068;5.198;2022-11-11T10:12:08;11.40;99.90
16881;DHT22;8557;52.068;5.198;2022-11-11T10:14:38;11.40;99.90
16881;DHT22;8557;52.068;5.198;2022-11-11T10:17:12;11.40;99.90
16881;DHT22;8557;52.068;5.198;2022-11-11T10:19:49;11.50;99.90
16881;DHT22;8557;52.068;5.198;2022-11-11T10:22:20;11.50;99.90
16881;DHT22;8557;52.068;5.198;2022-11-11T10:24:51;11.60;99.90
16881;DHT22;8557;52.068;5.198;2022-11-11T10:27:21;11.60;99.90
16881;DHT22;8557;52.068;5.198;2022-11-11T10:29:49;11.60;99.90
16881;DHT22;8557;52.068;5.198;2022-11-11T10:32:18;11.70;99.90
16881;DHT22;8557;52.068;5.198;2022-11-11T10:34:47;11.70;99.90
16881;DHT22;8557;52.068;5.198;2022-11-11T10:37:17;11.70;99.90
16881;DHT22;8557;52.068;5.198;2022-11-11T10:39:53;11.70;99.90
16881;DHT22;8557;52.068;5.198;2022-11-11T10:42:24;11.70;99.90
16881;DHT22;8557;52.068;5.198;2022-11-11T10:44:55;11.80;99.90
16881;DHT22;8557;52.068;5.198;2022-11-11T10:47:35;11.90;99.90
16881;DHT22;8557;52.068;5.198;2022-11-11T10:50:14;12.00;99.90
16881;DHT22;8557;52.068;5.198;2022-11-11T10:52:44;11.90;99.90
16881;DHT22;8557;52.068;5.198;2022-11-11T10:55:17;12.00;99.90
16881;DHT22;8557;52.068;5.198;2022-11-11T10:57:49;11.90;99.90
16881;DHT22;8557;52.068;5.198;2022-11-11T11:00:18;11.90;99.90
16881;DHT22;8557;52.068;5.198;2022-11-11T11:02:50;11.80;99.90
16881;DHT22;8557;52.068;5.198;2022-11-11T11:05:23;11.90;99.90
16881;DHT22;8557;52.068;5.198;2022-11-11T11:07:55;11.90;99.90
16881;DHT22;8557;52.068;5.198;2022-11-11T11:10:27;11.90;99.90
16881;DHT22;8557;52.068;5.198;2022-11-11T11:13:02;12.10;99.90
16881;DHT22;8557;52.068;5.198;2022-11-11T11:15:31;12.00;99.90
16881;DHT22;8557;52.068;5.198;2022-11-11T11:18:03;12.00;99.90
16881;DHT22;8557;52.068;5.198;2022-11-11T11:20:33;12.20;99.90
16881;DHT22;8557;52.068;5.198;2022-11-11T11:23:00;12.30;99.90
16881;DHT22;8557;52.068;5.198;2022-11-11T11:25:28;12.40;99.90
16881;DHT22;8557;52.068;5.198;2022-11-11T11:28:06;12.40;99.90
16881;DHT22;8557;52.068;5.198;2022-11-11T11:30:33;12.40;99.90
16881;DHT22;8557;52.068;5.198;2022-11-11T11:33:01;12.40;99.90
16881;DHT22;8557;52.068;5.198;2022-11-11T11:35:35;12.40;99.90
16881;DHT22;8557;52.068;5.198;2022-11-11T11:38:03;12.50;99.90
16881;DHT22;8557;52.068;5.198;2022-11-11T11:40:47;12.50;99.90
16881;DHT22;8557;52.068;5.198;2022-11-11T11:43:25;12.40;99.90
16881;DHT22;8557;52.068;5.198;2022-11-11T11:45:54;12.50;99.90
16881;DHT22;8557;52.068;5.198;2022-11-11T11:48:32;12.50;99.90
16881;DHT22;8557;52.068;5.198;2022-11-11T11:51:11;12.40;99.90
16881;DHT22;8557;52.068;5.198;2022-11-11T11:53:48;12.50;99.90
16881;DHT22;8557;52.068;5.198;2022-11-11T11:56:27;12.60;99.90
16881;DHT22;8557;52.068;5.198;2022-11-11T11:59:03;12.80;99.90
16881;DHT22;8557;52.068;5.198;2022-11-11T12:01:34;12.80;99.90
16881;DHT22;8557;52.068;5.198;2022-11-11T12:04:27;12.80;99.90
16881;DHT22;8557;52.068;5.198;2022-11-11T12:07:04;13.00;99.90
16881;DHT22;8557;52.068;5.198;2022-11-11T12:09:44;13.20;99.90
16881;DHT22;8557;52.068;5.198;2022-11-11T12:12:20;13.30;99.90
16881;DHT22;8557;52.068;5.198;2022-11-11T12:14:59;13.40;99.90
16881;DHT22;8557;52.068;5.198;2022-11-11T12:17:41;13.40;99.90
16881;DHT22;8557;52.068;5.198;2022-11-11T12:20:15;13.30;99.90
16881;DHT22;8557;52.068;5.198;2022-11-11T12:25:56;13.40;99.90
16881;DHT22;8557;52.068;5.198;2022-11-11T12:28:39;13.50;99.90
16881;DHT22;8557;52.068;5.198;2022-11-11T12:31:21;13.70;99.90
16881;DHT22;8557;52.068;5.198;2022-11-11T12:34:05;13.70;99.90
16881;DHT22;8557;52.068;5.198;2022-11-11T12:36:38;13.80;99.90
16881;DHT22;8557;52.068;5.198;2022-11-11T12:39:21;13.80;99.90
16881;DHT22;8557;52.068;5.198;2022-11-11T12:42:07;13.90;99.90
16881;DHT22;8557;52.068;5.198;2022-11-11T12:44:40;13.90;99.90
16881;DHT22;8557;52.068;5.198;2022-11-11T12:47:25;13.90;99.90
16881;DHT22;8557;52.068;5.198;2022-11-11T12:49:57;14.00;99.90
16881;DHT22;8557;52.068;5.198;2022-11-11T12:52:40;14.10;99.90
16881;DHT22;8557;52.068;5.198;2022-11-11T12:55:18;14.10;99.90
16881;DHT22;8557;52.068;5.198;2022-11-11T12:58:02;14.10;99.90
16881;DHT22;8557;52.068;5.198;2022-11-11T13:00:31;14.20;99.90
16881;DHT22;8557;52.068;5.198;2022-11-11T13:03:25;14.30;99.90
16881;DHT22;8557;52.068;5.198;2022-11-11T13:06:04;14.40;99.90
16881;DHT22;8557;52.068;5.198;2022-11-11T13:08:47;14.50;99.90
16881;DHT22;8557;52.068;5.198;2022-11-11T13:11:22;14.70;99.90
16881;DHT22;8557;52.068;5.198;2022-11-11T13:14:03;14.70;99.90
16881;DHT22;8557;52.068;5.198;2022-11-11T13:16:32;14.70;99.90
16881;DHT22;8557;52.068;5.198;2022-11-11T13:19:01;14.60;99.90
16881;DHT22;8557;52.068;5.198;2022-11-11T13:21:35;14.70;99.90
16881;DHT22;8557;52.068;5.198;2022-11-11T13:24:03;14.80;99.90
16881;DHT22;8557;52.068;5.198;2022-11-11T13:26:34;14.90;99.90
16881;DHT22;8557;52.068;5.198;2022-11-11T13:29:34;15.10;99.90
16881;DHT22;8557;52.068;5.198;2022-11-11T13:32:10;15.20;99.90
16881;DHT22;8557;52.068;5.198;2022-11-11T13:34:39;15.50;84.00
16881;DHT22;8557;52.068;5.198;2022-11-11T13:37:14;15.70;61.80
16881;DHT22;8557;52.068;5.198;2022-11-11T13:39:46;15.90;20.30
16881;DHT22;8557;52.068;5.198;2022-11-11T13:42:22;16.00;1.00
16881;DHT22;8557;52.068;5.198;2022-11-11T13:44:53;16.10;1.00
16881;DHT22;8557;52.068;5.198;2022-11-11T13:47:22;16.10;1.00
16881;DHT22;8557;52.068;5.198;2022-11-11T13:49:54;15.90;1.00
16881;DHT22;8557;52.068;5.198;2022-11-11T13:52:24;16.00;1.00
16881;DHT22;8557;52.068;5.198;2022-11-11T13:54:56;15.60;1.00
16881;DHT22;8557;52.068;5.198;2022-11-11T13:57:26;15.70;1.00
16881;DHT22;8557;52.068;5.198;2022-11-11T13:59:58;15.50;1.00
16881;DHT22;8557;52.068;5.198;2022-11-11T14:02:30;15.30;1.00
16881;DHT22;8557;52.068;5.198;2022-11-11T14:05:22;14.90;1.00
16881;DHT22;8557;52.068;5.198;2022-11-11T14:07:54;14.90;33.50
16881;DHT22;8557;52.068;5.198;2022-11-11T14:10:48;14.80;49.70
16881;DHT22;8557;52.068;5.198;2022-11-11T14:13:38;14.80;74.80
16881;DHT22;8557;52.068;5.198;2022-11-11T14:16:09;14.70;90.00
16881;DHT22;8557;52.068;5.198;2022-11-11T14:18:43;14.70;94.30
16881;DHT22;8557;52.068;5.198;2022-11-11T14:24:22;14.60;99.90
16881;DHT22;8557;52.068;5.198;2022-11-11T14:26:58;14.50;99.90
16881;DHT22;8557;52.068;5.198;2022-11-11T14:29:30;14.40;99.90
16881;DHT22;8557;52.068;5.198;2022-11-11T14:32:20;14.30;99.90
16881;DHT22;8557;52.068;5.198;2022-11-11T14:34:59;14.20;99.90
16881;DHT22;8557;52.068;5.198;2022-11-11T14:37:49;14.30;99.90
16881;DHT22;8557;52.068;5.198;2022-11-11T14:40:23;14.20;99.90
16881;DHT22;8557;52.068;5.198;2022-11-11T14:42:51;14.10;99.90
16881;DHT22;8557;52.068;5.198;2022-11-11T14:48:49;13.90;99.90
16881;DHT22;8557;52.068;5.198;2022-11-11T14:51:48;13.90;99.90
16881;DHT22;8557;52.068;5.198;2022-11-11T14:54:35;13.80;99.90
16881;DHT22;8557;52.068;5.198;2022-11-11T14:57:06;13.70;99.90
16881;DHT22;8557;52.068;5.198;2022-11-11T14:59:37;13.60;99.90
16881;DHT22;8557;52.068;5.198;2022-11-11T15:02:11;13.60;99.90
16881;DHT22;8557;52.068;5.198;2022-11-11T15:04:42;13.50;99.90
16881;DHT22;8557;52.068;5.198;2022-11-11T15:07:20;13.40;99.90
16881;DHT22;8557;52.068;5.198;2022-11-11T15:10:22;13.20;99.90
16881;DHT22;8557;52.068;5.198;2022-11-11T15:15:54;13.00;99.90
16881;DHT22;8557;52.068;5.198;2022-11-11T15:21:27;12.70;99.90
16881;DHT22;8557;52.068;5.198;2022-11-11T15:24:04;12.60;99.90
16881;DHT22;8557;52.068;5.198;2022-11-11T15:26:37;12.60;99.90
16881;DHT22;8557;52.068;5.198;2022-11-11T15:29:26;12.40;99.90
16881;DHT22;8557;52.068;5.198;2022-11-11T15:32:03;12.30;99.90
16881;DHT22;8557;52.068;5.198;2022-11-11T15:34:37;12.20;99.90
16881;DHT22;8557;52.068;5.198;2022-11-11T15:37:11;12.10;99.90
16881;DHT22;8557;52.068;5.198;2022-11-11T15:39:41;12.00;99.90
16881;DHT22;8557;52.068;5.198;2022-11-11T15:42:12;11.90;99.90
16881;DHT22;8557;52.068;5.198;2022-11-11T15:44:44;11.80;99.90
16881;DHT22;8557;52.068;5.198;2022-11-11T15:47:12;11.80;99.90
16881;DHT22;8557;52.068;5.198;2022-11-11T15:49:42;11.70;99.90
16881;DHT22;8557;52.068;5.198;2022-11-11T15:52:25;11.60;99.90
16881;DHT22;8557;52.068;5.198;2022-11-11T15:54:53;11.50;99.90
16881;DHT22;8557;52.068;5.198;2022-11-11T15:57:22;11.30;99.90
16881;DHT22;8557;52.068;5.198;2022-11-11T15:59:49;11.30;99.90
16881;DHT22;8557;52.068;5.198;2022-11-11T16:02:18;11.20;99.90
16881;DHT22;8557;52.068;5.198;2022-11-11T16:04:47;11.20;99.90
16881;DHT22;8557;52.068;5.198;2022-11-11T16:07:20;11.20;99.90
16881;DHT22;8557;52.068;5.198;2022-11-11T16:09:48;11.10;99.90
16881;DHT22;8557;52.068;5.198;2022-11-11T16:12:21;11.10;99.90
16881;DHT22;8557;52.068;5.198;2022-11-11T16:14:52;11.10;99.90
16881;DHT22;8557;52.068;5.198;2022-11-11T16:17:21;11.00;99.90
16881;DHT22;8557;52.068;5.198;2022-11-11T16:19:50;10.90;99.90
16881;DHT22;8557;52.068;5.198;2022-11-11T16:22:19;10.80;99.90
16881;DHT22;8557;52.068;5.198;2022-11-11T16:24:49;10.80;99.90
16881;DHT22;8557;52.068;5.198;2022-11-11T16:27:18;10.60;99.90
16881;DHT22;8557;52.068;5.198;2022-11-11T16:29:46;10.60;99.90
16881;DHT22;8557;52.068;5.198;2022-11-11T16:32:32;10.50;99.90